createdAt,value
2019-06-26T00:03:03.473Z,26.30
2019-06-26T00:06:09.137Z,26.32
2019-06-26T00:09:14.842Z,26.28
2019-06-26T00:12:20.575Z,26.22
2019-06-26T00:15:26.305Z,26.09
2019-06-26T00:18:32.334Z,26.07
2019-06-26T00:21:38.026Z,26.22
2019-06-26T00:24:43.716Z,26.30
2019-06-26T00:27:49.423Z,26.41
2019-06-26T00:30:55.121Z,26.38
2019-06-26T00:34:00.855Z,26.42
2019-06-26T00:37:06.509Z,26.17
2019-06-26T00:40:12.446Z,26.29
2019-06-26T00:43:18.093Z,26.34
2019-06-26T00:46:23.798Z,26.38
2019-06-26T00:49:29.451Z,26.37
2019-06-26T00:52:35.156Z,26.30
2019-06-26T00:55:40.835Z,26.30
2019-06-26T00:58:46.538Z,26.32
2019-06-26T01:01:52.403Z,25.95
2019-06-26T01:05:00.172Z,26.11
2019-06-26T01:08:05.914Z,26.20
2019-06-26T01:11:11.609Z,26.22
2019-06-26T01:14:17.260Z,26.23
2019-06-26T01:17:22.963Z,26.18
2019-06-26T01:20:28.629Z,26.10
2019-06-26T01:23:35.314Z,25.97
2019-06-26T01:26:41.001Z,25.91
2019-06-26T01:29:46.691Z,25.84
2019-06-26T01:32:52.373Z,25.86
2019-06-26T01:35:58.101Z,25.92
2019-06-26T01:39:04.738Z,25.95
2019-06-26T01:42:10.650Z,26.03
2019-06-26T01:45:16.514Z,25.98
2019-06-26T01:48:22.212Z,25.96
2019-06-26T01:51:27.920Z,25.94
2019-06-26T01:54:33.689Z,25.85
2019-06-26T01:57:40.439Z,25.99
2019-06-26T02:00:46.066Z,25.89
2019-06-26T02:03:51.765Z,25.81
2019-06-26T02:06:57.448Z,25.69
2019-06-26T02:10:03.247Z,25.89
2019-06-26T02:13:08.918Z,25.82
2019-06-26T02:16:14.598Z,25.63
2019-06-26T02:19:21.191Z,25.46
2019-06-26T02:22:26.893Z,25.43
2019-06-26T02:25:32.643Z,25.43
2019-06-26T02:28:38.422Z,25.45
2019-06-26T02:31:44.176Z,25.34
2019-06-26T02:34:49.900Z,25.31
2019-06-26T02:37:56.533Z,25.06
2019-06-26T02:41:02.285Z,25.24
2019-06-26T02:44:07.945Z,25.25
2019-06-26T02:47:20.186Z,25.21
2019-06-26T02:50:20.982Z,25.23
2019-06-26T02:53:26.689Z,25.08
2019-06-26T02:56:32.367Z,25.04
2019-06-26T02:59:38.099Z,25.18
2019-06-26T03:02:43.804Z,25.06
2019-06-26T03:05:49.498Z,24.98
2019-06-26T03:08:55.211Z,25.16
2019-06-26T03:12:00.874Z,25.34
2019-06-26T03:15:09.226Z,25.48
2019-06-26T03:18:14.523Z,25.32
2019-06-26T03:21:20.619Z,25.33
2019-06-26T03:24:26.329Z,25.41
2019-06-26T03:27:32.127Z,25.48
2019-06-26T03:30:38.794Z,25.66
2019-06-26T03:33:44.533Z,25.60
2019-06-26T03:36:50.276Z,25.66
2019-06-26T03:39:55.989Z,25.66
2019-06-26T03:43:01.815Z,25.65
2019-06-26T03:46:07.511Z,25.82
2019-06-26T03:49:13.264Z,25.92
2019-06-26T03:52:18.960Z,25.93
2019-06-26T03:55:24.839Z,25.91
2019-06-26T03:58:30.569Z,26.10
2019-06-26T04:01:36.307Z,26.33
2019-06-26T04:04:41.963Z,26.50
2019-06-26T04:07:47.696Z,26.65
2019-06-26T04:10:53.568Z,26.62
2019-06-26T04:13:59.227Z,26.78
2019-06-26T04:17:05.052Z,26.63
2019-06-26T04:20:10.953Z,26.54
2019-06-26T04:23:16.635Z,26.66
2019-06-26T04:26:22.342Z,26.77
2019-06-26T04:29:28.070Z,26.86
2019-06-26T04:32:33.721Z,26.81
2019-06-26T04:35:39.788Z,26.72
2019-06-26T04:38:45.475Z,27.28
2019-06-26T04:41:51.162Z,27.29
2019-06-26T04:44:56.937Z,27.52
2019-06-26T04:48:02.756Z,27.49
2019-06-26T04:51:08.566Z,27.66
2019-06-26T04:54:14.510Z,27.66
2019-06-26T04:57:20.287Z,28.12
2019-06-26T05:00:26.243Z,28.33
2019-06-26T05:03:32.043Z,28.25
2019-06-26T05:06:37.803Z,28.18
2019-06-26T05:09:45.418Z,27.98
2019-06-26T05:12:51.040Z,27.82
2019-06-26T05:15:56.728Z,27.78
2019-06-26T05:19:02.403Z,28.28
2019-06-26T05:22:08.108Z,28.42
2019-06-26T05:25:14.207Z,28.69
2019-06-26T05:28:19.886Z,28.98
2019-06-26T05:31:25.718Z,29.15
2019-06-26T05:34:31.446Z,29.22
2019-06-26T05:37:37.180Z,28.99
2019-06-26T05:40:44.585Z,29.40
2019-06-26T05:43:50.350Z,29.72
2019-06-26T05:46:56.067Z,29.81
2019-06-26T05:50:01.848Z,29.74
2019-06-26T05:53:07.717Z,29.64
2019-06-26T05:56:13.384Z,29.75
2019-06-26T05:59:19.051Z,29.94
2019-06-26T06:02:24.943Z,30.24
2019-06-26T06:05:32.808Z,30.35
2019-06-26T06:08:38.480Z,30.47
2019-06-26T06:11:44.139Z,30.50
2019-06-26T06:14:49.844Z,30.07
2019-06-26T06:17:56.613Z,30.57
2019-06-26T06:21:05.561Z,30.70
2019-06-26T06:24:11.251Z,31.05
2019-06-26T06:27:17.010Z,30.58
2019-06-26T06:30:23.223Z,31.01
2019-06-26T06:33:28.917Z,31.09
2019-06-26T06:36:34.737Z,30.75
2019-06-26T06:39:40.679Z,31.29
2019-06-26T06:42:46.543Z,31.36
2019-06-26T06:45:52.273Z,31.76
2019-06-26T06:48:57.977Z,32.11
2019-06-26T06:52:03.791Z,32.19
2019-06-26T06:55:09.674Z,32.35
2019-06-26T06:58:15.459Z,32.22
2019-06-26T07:01:21.102Z,31.80
2019-06-26T07:04:26.959Z,31.99
2019-06-26T07:07:32.659Z,32.18
2019-06-26T07:10:38.340Z,32.49
2019-06-26T07:13:44.110Z,32.38
2019-06-26T07:16:49.928Z,32.44
2019-06-26T07:19:55.602Z,32.43
2019-06-26T07:23:01.335Z,32.22
2019-06-26T07:26:07.395Z,32.49
2019-06-26T07:29:13.095Z,32.63
2019-06-26T07:32:18.786Z,32.85
2019-06-26T07:35:28.440Z,32.87
2019-06-26T07:38:34.195Z,32.54
2019-06-26T07:41:39.899Z,33.24
2019-06-26T07:44:45.627Z,33.01
2019-06-26T07:47:52.460Z,33.13
2019-06-26T07:50:58.140Z,33.62
2019-06-26T07:54:03.840Z,33.19
2019-06-26T07:57:09.503Z,32.44
2019-06-26T08:00:17.121Z,31.48
2019-06-26T08:03:22.861Z,30.96
2019-06-26T08:06:28.602Z,30.86
2019-06-26T08:09:34.756Z,31.15
2019-06-26T08:12:40.395Z,31.52
2019-06-26T08:15:46.178Z,31.74
2019-06-26T08:18:51.878Z,32.56
2019-06-26T08:21:57.645Z,33.05
2019-06-26T08:25:03.319Z,33.23
2019-06-26T08:28:09.023Z,33.19
2019-06-26T08:31:14.719Z,32.80
2019-06-26T08:34:20.388Z,33.12
2019-06-26T08:37:26.052Z,33.97
2019-06-26T08:40:31.819Z,34.22
2019-06-26T08:43:37.467Z,34.66
2019-06-26T08:46:43.179Z,34.32
2019-06-26T08:49:48.910Z,34.26
2019-06-26T08:52:54.619Z,34.16
2019-06-26T08:56:00.323Z,34.29
2019-06-26T08:59:06.043Z,34.65
2019-06-26T09:02:11.704Z,34.13
2019-06-26T09:05:19.560Z,34.39
2019-06-26T09:08:26.197Z,33.71
2019-06-26T09:11:36.459Z,32.65
2019-06-26T09:14:42.716Z,32.10
2019-06-26T09:17:48.505Z,32.33
2019-06-26T09:20:59.113Z,32.12
2019-06-26T09:24:03.591Z,31.66
2019-06-26T09:27:09.365Z,31.82
2019-06-26T09:30:16.394Z,32.04
2019-06-26T09:33:22.079Z,32.31
2019-06-26T09:36:30.172Z,32.32
2019-06-26T09:39:35.901Z,32.29
2019-06-26T09:42:41.690Z,32.06
2019-06-26T09:45:48.673Z,32.11
2019-06-26T09:48:54.389Z,32.51
2019-06-26T09:52:00.052Z,33.39
2019-06-26T09:55:06.329Z,32.94
2019-06-26T09:58:13.350Z,33.25
2019-06-26T10:01:19.618Z,32.37
2019-06-26T10:04:25.340Z,32.13
2019-06-26T10:07:30.964Z,32.39
2019-06-26T10:10:37.828Z,32.43
2019-06-26T10:13:43.688Z,32.16
2019-06-26T10:16:49.375Z,32.38
2019-06-26T10:19:55.070Z,32.52
2019-06-26T10:23:00.748Z,32.33
2019-06-26T10:26:06.456Z,32.77
2019-06-26T10:29:12.227Z,32.83
2019-06-26T10:32:17.934Z,33.42
2019-06-26T10:35:23.884Z,33.70
2019-06-26T10:38:29.582Z,34.20
2019-06-26T10:41:35.389Z,34.94
2019-06-26T10:44:41.034Z,34.80
2019-06-26T10:47:46.847Z,35.46
2019-06-26T10:50:58.532Z,35.43
2019-06-26T10:54:01.033Z,35.41
2019-06-26T10:57:06.791Z,34.85
2019-06-26T11:00:12.972Z,35.09
2019-06-26T11:03:18.772Z,34.66
2019-06-26T11:06:24.689Z,33.74
2019-06-26T11:09:30.370Z,34.16
2019-06-26T11:12:36.099Z,34.62
2019-06-26T11:15:41.825Z,35.20
2019-06-26T11:18:47.554Z,35.29
2019-06-26T11:21:53.328Z,35.35
2019-06-26T11:24:59.059Z,35.74
2019-06-26T11:28:04.879Z,35.82
2019-06-26T11:31:12.105Z,35.13
2019-06-26T11:34:17.791Z,35.22
2019-06-26T11:37:23.498Z,34.88
2019-06-26T11:40:29.320Z,34.98
2019-06-26T11:43:35.019Z,34.50
2019-06-26T11:46:40.676Z,34.28
2019-06-26T11:49:59.434Z,33.46
2019-06-26T11:52:59.654Z,32.71
2019-06-26T11:56:05.564Z,32.50
2019-06-26T11:59:11.376Z,32.41
2019-06-26T12:02:18.098Z,33.27
2019-06-26T12:05:24.015Z,33.58
2019-06-26T12:08:29.706Z,33.84
2019-06-26T12:11:39.220Z,33.55
2019-06-26T12:14:45.056Z,32.99
2019-06-26T12:17:50.812Z,33.09
2019-06-26T12:20:56.508Z,32.68
2019-06-26T12:24:02.532Z,33.43
2019-06-26T12:27:08.212Z,34.01
2019-06-26T12:30:14.238Z,34.03
2019-06-26T12:33:19.891Z,33.77
2019-06-26T12:36:25.855Z,33.39
2019-06-26T12:39:31.527Z,32.68
2019-06-26T12:42:37.281Z,32.35
2019-06-26T12:45:47.693Z,32.63
2019-06-26T12:48:53.446Z,32.86
2019-06-26T12:51:59.175Z,32.26
2019-06-26T12:55:05.455Z,32.25
2019-06-26T12:58:13.865Z,32.30
2019-06-26T13:01:18.587Z,29.87
2019-06-26T13:04:24.304Z,28.66
2019-06-26T13:07:30.034Z,28.27
2019-06-26T13:10:49.041Z,28.00
2019-06-26T13:13:43.203Z,27.31
2019-06-26T13:16:48.901Z,27.11
2019-06-26T13:19:54.566Z,27.44
2019-06-26T13:23:00.299Z,27.28
2019-06-26T13:26:05.959Z,26.49
2019-06-26T13:29:11.688Z,26.37
2019-06-26T13:32:17.324Z,26.88
2019-06-26T13:35:24.339Z,26.86
2019-06-26T13:38:30.215Z,27.07
2019-06-26T13:41:35.949Z,26.90
2019-06-26T13:44:42.666Z,26.89
2019-06-26T13:47:48.438Z,27.20
2019-06-26T13:51:08.220Z,27.36
2019-06-26T13:54:01.515Z,26.98
2019-06-26T13:57:07.185Z,26.97
2019-06-26T14:00:13.793Z,27.13
2019-06-26T14:03:19.683Z,26.36
2019-06-26T14:06:25.462Z,26.12
2019-06-26T14:09:31.181Z,26.38
2019-06-26T14:12:37.026Z,26.00
2019-06-26T14:15:42.905Z,26.82
2019-06-26T14:18:48.613Z,27.24
2019-06-26T14:21:54.326Z,27.69
2019-06-26T14:25:00.049Z,27.86
2019-06-26T14:28:05.762Z,27.99
2019-06-26T14:31:11.453Z,28.59
2019-06-26T14:34:17.166Z,28.08
2019-06-26T14:37:22.884Z,28.93
2019-06-26T14:40:28.558Z,28.67
2019-06-26T14:43:34.278Z,28.74
2019-06-26T14:46:40.043Z,28.86
2019-06-26T14:49:45.743Z,28.64
2019-06-26T14:52:51.407Z,28.98
2019-06-26T14:55:57.209Z,29.20
2019-06-26T14:59:03.012Z,29.19
2019-06-26T15:02:08.719Z,29.34
2019-06-26T15:05:14.436Z,29.34
2019-06-26T15:08:20.108Z,29.62
2019-06-26T15:11:25.972Z,29.10
2019-06-26T15:14:31.625Z,29.08
2019-06-26T15:17:37.403Z,28.92
2019-06-26T15:20:43.125Z,29.15
2019-06-26T15:23:48.789Z,29.21
2019-06-26T15:27:02.747Z,29.19
2019-06-26T15:30:08.705Z,29.41
2019-06-26T15:33:14.450Z,29.19
2019-06-26T15:36:20.124Z,29.16
2019-06-26T15:39:26.135Z,28.84
2019-06-26T15:42:31.817Z,28.68
2019-06-26T15:45:37.470Z,28.81
2019-06-26T15:48:43.200Z,28.85
2019-06-26T15:51:48.999Z,28.70
2019-06-26T15:54:54.700Z,28.62
2019-06-26T15:58:00.397Z,28.58
2019-06-26T16:01:06.228Z,28.46
2019-06-26T16:04:11.897Z,28.39
2019-06-26T16:07:17.621Z,28.48
2019-06-26T16:10:23.638Z,28.46
2019-06-26T16:13:30.531Z,28.56
2019-06-26T16:16:38.700Z,28.58
2019-06-26T16:19:45.421Z,28.50
2019-06-26T16:22:51.224Z,27.94
2019-06-26T16:25:57.071Z,28.31
2019-06-26T16:29:02.887Z,28.50
2019-06-26T16:32:08.652Z,28.75
2019-06-26T16:35:15.828Z,28.63
2019-06-26T16:38:21.610Z,28.58
2019-06-26T16:41:28.265Z,28.76
2019-06-26T16:44:34.059Z,28.65
2019-06-26T16:47:40.204Z,28.58
2019-06-26T16:50:46.889Z,28.45
2019-06-26T16:53:53.099Z,28.53
2019-06-26T16:56:58.796Z,28.58
2019-06-26T17:00:09.907Z,28.56
2019-06-26T17:03:12.809Z,28.57
2019-06-26T17:06:18.605Z,28.59
2019-06-26T17:09:24.309Z,28.53
2019-06-26T17:12:29.973Z,28.53
2019-06-26T17:15:35.657Z,28.48
2019-06-26T17:18:41.375Z,28.42
2019-06-26T17:21:47.093Z,28.50
2019-06-26T17:24:52.776Z,28.50
2019-06-26T17:27:58.432Z,28.44
2019-06-26T17:31:04.242Z,28.38
2019-06-26T17:34:09.940Z,28.03
2019-06-26T17:37:16.669Z,28.05
2019-06-26T17:40:22.573Z,27.89
2019-06-26T17:43:29.379Z,27.88
2019-06-26T17:46:35.069Z,27.85
2019-06-26T17:49:40.728Z,27.65
2019-06-26T17:52:46.425Z,27.67
2019-06-26T17:55:52.099Z,27.77
2019-06-26T17:58:57.817Z,27.66
2019-06-26T18:02:03.589Z,27.68
2019-06-26T18:05:09.715Z,27.64
2019-06-26T18:08:15.594Z,27.43
2019-06-26T18:11:21.425Z,27.67
2019-06-26T18:14:27.064Z,27.41
2019-06-26T18:17:32.751Z,27.52
2019-06-26T18:20:38.573Z,27.48
2019-06-26T18:23:44.397Z,27.15
2019-06-26T18:26:50.070Z,27.34
2019-06-26T18:29:55.808Z,27.50
2019-06-26T18:33:02.067Z,27.51
2019-06-26T18:36:10.018Z,27.47
2019-06-26T18:39:27.247Z,27.19
2019-06-26T18:42:32.980Z,27.18
2019-06-26T18:45:38.678Z,27.16
2019-06-26T18:48:45.561Z,27.16
2019-06-26T18:51:51.233Z,27.20
2019-06-26T18:54:56.940Z,27.23
2019-06-26T18:58:02.618Z,27.15
2019-06-26T19:01:08.275Z,27.10
2019-06-26T19:04:13.972Z,27.19
2019-06-26T19:07:19.676Z,27.08
2019-06-26T19:10:25.348Z,27.26
2019-06-26T19:13:31.038Z,26.97
2019-06-26T19:16:37.839Z,27.16
2019-06-26T19:19:43.580Z,27.26
2019-06-26T19:22:49.286Z,27.28
2019-06-26T19:25:55.023Z,27.04
2019-06-26T19:29:00.706Z,27.11
2019-06-26T19:32:06.497Z,27.14
2019-06-26T19:35:20.322Z,26.92
2019-06-26T19:38:20.334Z,26.78
2019-06-26T19:41:26.030Z,26.93
2019-06-26T19:44:31.748Z,26.88
2019-06-26T19:47:37.572Z,26.81
2019-06-26T19:50:43.287Z,26.81
2019-06-26T19:53:49.082Z,26.73
2019-06-26T19:56:54.833Z,26.56
2019-06-26T20:00:00.799Z,26.55
2019-06-26T20:03:06.745Z,26.51
2019-06-26T20:06:42.331Z,26.50
2019-06-26T20:09:54.891Z,26.61
2019-06-26T20:12:57.380Z,26.66
2019-06-26T20:16:02.877Z,26.73
2019-06-26T20:19:08.684Z,26.79
2019-06-26T20:22:14.427Z,26.79
2019-06-26T20:25:20.709Z,26.43
2019-06-26T20:28:26.237Z,26.37
2019-06-26T20:31:31.760Z,26.43
2019-06-26T20:34:37.292Z,26.48
2019-06-26T20:37:43.860Z,26.43
2019-06-26T20:40:49.395Z,26.45
2019-06-26T20:43:54.930Z,26.46
2019-06-26T20:47:01.491Z,26.25
2019-06-26T20:50:07.521Z,26.37
2019-06-26T20:53:13.017Z,26.41
2019-06-26T20:56:18.570Z,26.33
2019-06-26T20:59:24.188Z,26.42
2019-06-26T21:02:29.761Z,26.29
2019-06-26T21:05:35.264Z,25.99
2019-06-26T21:08:40.825Z,26.21
2019-06-26T21:11:46.365Z,25.77
2019-06-26T21:14:51.929Z,25.75
2019-06-26T21:17:57.475Z,25.62
2019-06-26T21:21:03.013Z,25.92
2019-06-26T21:24:08.573Z,25.85
2019-06-26T21:27:14.054Z,25.82
2019-06-26T21:30:19.747Z,25.91
2019-06-26T21:33:25.239Z,25.87
2019-06-26T21:36:30.780Z,25.69
2019-06-26T21:39:36.292Z,25.89
2019-06-26T21:42:41.827Z,25.81
2019-06-26T21:45:47.389Z,25.88
2019-06-26T21:48:52.887Z,26.02
2019-06-26T21:51:58.498Z,25.73
2019-06-26T21:55:04.310Z,25.64
2019-06-26T21:58:27.544Z,25.88
2019-06-26T22:01:51.015Z,25.77
2019-06-26T22:05:14.417Z,25.84
2019-06-26T22:08:36.660Z,25.77
2019-06-26T22:11:43.826Z,25.85
2019-06-26T22:14:49.399Z,25.79
2019-06-26T22:17:55.164Z,25.82
2019-06-26T22:21:00.753Z,25.76
2019-06-26T22:24:06.416Z,25.71
2019-06-26T22:27:12.128Z,25.52
2019-06-26T22:30:19.250Z,25.59
2019-06-26T22:33:24.986Z,25.55
2019-06-26T22:36:31.455Z,25.58
2019-06-26T22:39:37.085Z,25.62
2019-06-26T22:42:42.662Z,25.76
2019-06-26T22:45:48.316Z,25.36
2019-06-26T22:48:53.961Z,25.68
2019-06-26T22:52:00.069Z,25.64
2019-06-26T22:55:06.292Z,25.56
2019-06-26T22:58:12.107Z,25.58
2019-06-26T23:01:17.942Z,25.56
2019-06-26T23:04:23.880Z,25.60
2019-06-26T23:07:29.772Z,25.59
2019-06-26T23:10:35.460Z,25.55
2019-06-26T23:13:41.171Z,25.47
2019-06-26T23:16:46.859Z,25.46
2019-06-26T23:19:52.547Z,25.42
2019-06-26T23:22:58.200Z,25.38
2019-06-26T23:26:03.963Z,25.36
2019-06-26T23:29:09.816Z,25.01
2019-06-26T23:32:15.547Z,25.30
2019-06-26T23:35:21.228Z,25.12
2019-06-26T23:38:26.928Z,25.16
2019-06-26T23:41:32.605Z,25.04
2019-06-26T23:44:38.311Z,25.09
2019-06-26T23:47:44.040Z,24.97
2019-06-26T23:50:49.723Z,25.01
2019-06-26T23:53:56.410Z,25.01
2019-06-26T23:57:02.111Z,24.92
